Terminal Aerodrome Forecast
Issued by NWS

Home | Current Version | Previous Version | Text Only | Print | Product List | Glossary On
Versions: 1 2 3 4 5 6 7 8 9 10 11 12 13 14 15 16 17 18
667
FTUS44 KLZK 302334
TAFHRO
TAF
KHRO 302334Z 3100/3124 18005KT P6SM FEW035 SCT050 BKN250
     FM310900 VRB03KT 5SM BR FEW250
      TEMPO 3110/3114 2SM BR BKN015
     FM311500 18005KT P6SM SCT020 SCT250
     FM311800 18006KT P6SM VCTS SCT050CB BKN250=

USA.gov is the U.S. government's official web portal to all federal, state and local government web resources and services.